Time;durP1;ratioP1;P1;durP2;ratioP2;P2;SDS_P1;SDS_P2;PMS_P1;PMS_P2;Temp;Humidity;BMP_temperature;BMP_pressure;BME280_temperature;BME280_humidity;BME280_pressure;Samples;Min_cycle;Max_cycle;Signal;HPM_P1;HPM_P2
2022/04/02 00:00:26;;;;;;;;;19.33;17.67;;;;;18.10;26.03;100901.69;5058356;28;45382;-77
2022/04/02 00:02:51;;;;;;;;;16.67;14.67;;;;;17.92;25.86;100853.56;5058194;28;45451;-77
2022/04/02 00:05:17;;;;;;;;;16.33;16.00;;;;;18.02;25.93;100876.72;5058292;28;45392;-76
2022/04/02 00:07:42;;;;;;;;;22.00;16.33;;;;;18.28;26.08;100897.03;5058026;28;45290;-76
2022/04/02 00:10:08;;;;;;;;;18.33;16.00;;;;;17.88;26.06;100858.03;5057999;28;46137;-76
2022/04/02 00:12:33;;;;;;;;;19.33;17.67;;;;;18.11;25.83;100905.25;5058326;28;45387;-76
2022/04/02 00:14:58;;;;;;;;;20.00;19.33;;;;;18.10;25.89;100885.59;5058402;28;45522;-76
2022/04/02 00:17:24;;;;;;;;;17.33;15.00;;;;;18.32;25.86;100901.47;5058089;28;45316;-76
2022/04/02 00:19:49;;;;;;;;;14.00;11.33;;;;;18.20;25.66;100902.50;5058288;28;45281;-77
2022/04/02 00:22:15;;;;;;;;;14.33;14.33;;;;;18.03;25.85;100872.22;5057815;28;45223;-77
2022/04/02 00:24:41;;;;;;;;;17.00;16.00;;;;;17.95;25.71;100837.41;5057925;28;45491;-77
2022/04/02 00:27:06;;;;;;;;;22.33;19.33;;;;;18.25;25.59;100895.25;5056487;28;45464;-76
2022/04/02 00:29:34;;;;;;;;;21.67;21.67;;;;;18.22;25.44;100895.31;5057777;28;45528;-76
2022/04/02 00:31:59;;;;;;;;;14.33;13.00;;;;;18.13;25.52;100917.78;5057844;28;45391;-77
2022/04/02 00:34:25;;;;;;;;;16.00;15.00;;;;;17.97;25.56;100874.09;5057229;28;45336;-76
2022/04/02 00:36:50;;;;;;;;;19.33;17.33;;;;;18.08;25.57;100897.25;5056152;28;45600;-77
2022/04/02 00:39:15;;;;;;;;;16.67;16.67;;;;;17.83;25.71;100855.38;5057640;28;45802;-77
2022/04/02 00:41:41;;;;;;;;;15.33;14.67;;;;;17.78;25.67;100875.13;5057669;28;46117;-76
2022/04/02 00:44:12;;;;;;;;;21.00;16.33;;;;;17.97;25.70;100889.28;5057544;28;45304;-76
2022/04/02 00:46:42;;;;;;;;;10.67;10.67;;;;;17.99;25.41;100895.53;5057810;28;45388;-77
2022/04/02 00:49:09;;;;;;;;;16.67;15.33;;;;;17.65;25.68;100812.63;5057309;28;45316;-77
2022/04/02 00:51:41;;;;;;;;;12.67;10.67;;;;;17.86;25.08;100869.66;5037181;28;45453;-77
2022/04/02 00:54:08;;;;;;;;;15.00;13.67;;;;;17.69;25.06;100862.66;5037398;28;45656;-77
2022/04/02 00:56:34;;;;;;;;;11.33;11.33;;;;;17.77;25.04;100887.63;5037632;28;45495;-77
2022/04/02 00:59:00;;;;;;;;;11.67;11.00;;;;;17.59;25.06;100861.84;5037042;28;46636;-76
2022/04/02 01:01:25;;;;;;;;;8.67;8.67;;;;;17.57;24.74;100895.84;5037097;28;45483;-76
2022/04/02 01:03:50;;;;;;;;;10.67;9.33;;;;;17.72;24.99;100899.31;5037578;28;45410;-76
2022/04/02 01:06:17;;;;;;;;;13.00;10.00;;;;;17.71;24.85;100898.44;5036860;28;45480;-77
2022/04/02 01:08:42;;;;;;;;;11.33;10.00;;;;;17.71;25.12;100887.69;5037039;28;46263;-76
2022/04/02 01:11:08;;;;;;;;;8.33;7.00;;;;;17.66;24.74;100890.44;5037016;28;45567;-76
2022/04/02 01:13:34;;;;;;;;;8.67;8.33;;;;;17.84;24.65;100894.72;5037252;28;45422;-76
2022/04/02 01:16:00;;;;;;;;;10.33;8.33;;;;;17.73;24.56;100863.53;5037122;28;45702;-76
2022/04/02 01:18:25;;;;;;;;;6.67;6.33;;;;;17.90;24.28;100892.91;5036988;28;46512;-76
2022/04/02 01:20:53;;;;;;;;;10.00;8.67;;;;;17.80;24.46;100878.66;5036722;28;45417;-76
2022/04/02 01:23:19;;;;;;;;;8.67;7.00;;;;;17.53;24.49;100861.03;5036836;28;45409;-76
2022/04/02 01:25:44;;;;;;;;;5.00;5.00;;;;;17.63;24.54;100876.13;5037061;28;45397;-76
2022/04/02 01:28:10;;;;;;;;;8.00;7.33;;;;;17.37;24.52;100846.81;5036948;28;45460;-76
2022/04/02 01:30:35;;;;;;;;;9.67;6.33;;;;;17.56;24.60;100890.50;5036846;28;45349;-77
2022/04/02 01:33:01;;;;;;;;;5.33;5.33;;;;;17.36;24.53;100858.47;5036807;28;45524;-77
2022/04/02 01:35:26;;;;;;;;;6.67;6.67;;;;;17.14;24.35;100838.06;5036903;28;45512;-76
2022/04/02 01:37:52;;;;;;;;;6.33;6.00;;;;;17.35;24.42;100854.88;5036566;28;45369;-76
2022/04/02 01:40:19;;;;;;;;;7.00;6.00;;;;;17.41;24.35;100899.53;5036634;28;45569;-76
2022/04/02 01:42:46;;;;;;;;;5.33;5.00;;;;;17.08;24.71;100832.72;5036933;28;45448;-77
2022/04/02 01:45:13;;;;;;;;;6.00;6.00;;;;;17.44;24.46;100897.75;5036488;28;45326;-76
2022/04/02 01:47:38;;;;;;;;;7.00;6.00;;;;;17.21;24.63;100884.47;5036274;28;46393;-77
2022/04/02 01:50:06;;;;;;;;;9.33;6.33;;;;;17.15;24.44;100857.72;5043931;28;45321;-77
2022/04/02 01:52:32;;;;;;;;;10.33;9.33;;;;;17.16;24.29;100846.09;5056868;28;45521;-76
2022/04/02 01:54:57;;;;;;;;;3.67;3.67;;;;;17.38;24.28;100878.13;5056524;28;45617;-76
2022/04/02 01:57:22;;;;;;;;;5.67;5.33;;;;;17.12;24.41;100890.78;5056557;28;45542;-76
2022/04/02 01:59:49;;;;;;;;;5.33;2.00;;;;;17.06;24.54;100855.06;5056649;28;45435;-77
2022/04/02 02:02:20;;;;;;;;;8.67;7.00;;;;;17.47;24.42;100918.28;5056094;28;45330;-76
2022/04/02 02:04:45;;;;;;;;;7.00;6.00;;;;;17.30;24.01;100913.03;5056377;28;45538;-76
2022/04/02 02:07:10;;;;;;;;;7.33;7.00;;;;;17.16;24.42;100918.47;5056130;28;45409;-77
2022/04/02 02:09:36;;;;;;;;;7.00;7.00;;;;;17.07;24.30;100907.78;5056663;28;45462;-76
2022/04/02 02:12:02;;;;;;;;;6.00;6.00;;;;;17.39;24.46;100925.50;5056332;28;45852;-77
2022/04/02 02:14:29;;;;;;;;;7.67;6.67;;;;;17.44;24.02;100920.97;5056295;28;45371;-77
2022/04/02 02:16:54;;;;;;;;;7.33;6.00;;;;;17.06;24.48;100871.16;5055649;28;45419;-77
2022/04/02 02:19:20;;;;;;;;;7.67;6.00;;;;;17.33;24.41;100918.38;5055979;28;45498;-76
2022/04/02 02:21:45;;;;;;;;;6.00;6.00;;;;;17.13;24.17;100873.81;5056481;28;45349;-76
2022/04/02 02:24:10;;;;;;;;;7.00;4.33;;;;;17.21;24.33;100905.03;5055709;28;48981;-76
2022/04/02 02:26:36;;;;;;;;;6.33;6.00;;;;;17.17;24.45;100916.69;5056217;28;45347;-77
2022/04/02 02:29:06;;;;;;;;;5.33;5.33;;;;;17.14;24.13;100883.66;5056044;28;45546;-77
2022/04/02 02:31:33;;;;;;;;;5.67;3.67;;;;;17.21;24.25;100910.41;5055894;28;45527;-76
2022/04/02 02:36:50;;;;;;;;;6.67;6.00;;;;;17.34;24.26;100928.22;5032709;28;45556;-78
2022/04/02 02:39:15;;;;;;;;;5.67;3.67;;;;;17.19;24.52;100906.84;5032777;28;45476;-78
2022/04/02 02:41:40;;;;;;;;;6.33;5.00;;;;;17.29;24.22;100908.56;5032374;28;45817;-77
2022/04/02 02:44:06;;;;;;;;;6.00;5.00;;;;;17.31;24.08;100923.75;5016071;28;45560;-77
2022/04/02 02:46:32;;;;;;;;;7.00;5.33;;;;;17.27;24.29;100913.94;5033091;28;46252;-77
2022/04/02 02:48:57;;;;;;;;;6.00;5.00;;;;;17.34;24.13;100929.97;5033445;28;45441;-76
2022/04/02 02:51:22;;;;;;;;;6.67;6.00;;;;;17.23;24.41;100922.00;5032805;28;45438;-77
2022/04/02 02:53:48;;;;;;;;;6.67;5.67;;;;;17.23;24.13;100938.09;5033630;28;45598;-76
2022/04/02 02:56:13;;;;;;;;;6.33;5.00;;;;;17.00;24.38;100906.94;5032389;28;48605;-76
2022/04/02 02:58:39;;;;;;;;;7.00;4.33;;;;;16.97;24.10;100890.88;5033228;28;45465;-77
2022/04/02 03:01:07;;;;;;;;;6.00;6.00;;;;;17.03;24.41;100928.38;5032857;28;45338;-77
2022/04/02 03:03:33;;;;;;;;;6.67;6.00;;;;;17.13;24.48;100937.28;5033383;28;45430;-76
2022/04/02 03:05:59;;;;;;;;;9.33;7.67;;;;;17.13;24.27;100942.63;5033041;28;46857;-77
2022/04/02 03:08:25;;;;;;;;;6.67;6.00;;;;;17.21;24.11;100940.78;5033057;28;45464;-76
2022/04/02 03:10:50;;;;;;;;;5.67;5.67;;;;;17.09;24.53;100939.06;5033119;28;45450;-77
2022/04/02 03:13:16;;;;;;;;;3.00;3.00;;;;;17.06;24.46;100935.50;5039669;28;45394;-76
2022/04/02 03:15:42;;;;;;;;;7.67;6.00;;;;;17.04;24.35;100954.25;5053676;28;45464;-76
2022/04/02 03:18:08;;;;;;;;;6.00;6.00;;;;;17.15;24.53;100954.22;5054146;28;45424;-76
2022/04/02 03:20:36;;;;;;;;;8.00;7.00;;;;;17.03;24.31;100924.78;5054204;28;45522;-76
2022/04/02 03:23:02;;;;;;;;;6.00;6.00;;;;;17.22;24.31;100952.41;5053694;28;45658;-76
2022/04/02 03:25:28;;;;;;;;;7.00;6.00;;;;;17.21;24.38;100955.97;5053857;28;46255;-78
2022/04/02 03:27:54;;;;;;;;;7.00;7.00;;;;;17.11;24.47;100939.06;5054307;28;45420;-78
2022/04/02 03:30:21;;;;;;;;;6.00;6.00;;;;;17.28;24.27;100953.28;5053530;28;45350;-77
2022/04/02 03:32:47;;;;;;;;;7.33;6.67;;;;;16.62;24.48;100875.81;5055381;28;45659;-77
2022/04/02 03:35:15;;;;;;;;;10.33;8.67;;;;;17.00;24.58;100955.19;5054874;28;45644;-76
2022/04/02 03:37:42;;;;;;;;;8.67;7.33;;;;;16.85;24.16;100915.00;5055138;28;45514;-76
2022/04/02 03:40:10;;;;;;;;;7.67;6.67;;;;;16.39;24.68;100857.16;5055198;28;45426;-78
2022/04/02 03:42:37;;;;;;;;;6.33;6.33;;;;;16.98;24.43;100959.66;5055264;28;45522;-78
2022/04/02 03:45:04;;;;;;;;;5.67;5.67;;;;;16.72;24.37;100915.09;5054718;28;45451;-77
2022/04/02 03:47:30;;;;;;;;;8.00;6.67;;;;;16.83;24.80;100971.28;5054883;28;45451;-78
2022/04/02 03:49:55;;;;;;;;;8.00;8.00;;;;;16.97;24.69;100973.94;5055355;28;45329;-78
2022/04/02 03:52:21;;;;;;;;;9.33;9.33;;;;;16.38;24.52;100872.31;5053309;28;45458;-78
2022/04/02 03:54:46;;;;;;;;;9.33;8.33;;;;;16.33;24.88;100868.78;5054942;28;45429;-77
2022/04/02 03:57:13;;;;;;;;;10.00;10.00;;;;;16.79;24.95;100967.75;5054851;28;45350;-77
2022/04/02 03:59:40;;;;;;;;;7.00;7.00;;;;;16.84;24.80;100977.56;5054759;28;45550;-76
2022/04/02 04:02:07;;;;;;;;;6.00;6.00;;;;;16.59;24.95;100945.47;5054915;28;45489;-76
2022/04/02 04:04:32;;;;;;;;;11.00;9.67;;;;;16.89;24.95;100989.16;5054479;28;46530;-77
2022/04/02 04:06:58;;;;;;;;;7.67;7.67;;;;;16.69;24.97;100957.94;5054943;28;45373;-76
2022/04/02 04:09:24;;;;;;;;;7.00;7.00;;;;;16.55;25.14;100954.41;5056753;28;45383;-76
2022/04/02 04:11:49;;;;;;;;;10.00;10.00;;;;;16.68;25.07;100982.97;5058458;28;45471;-77
2022/04/02 04:14:15;;;;;;;;;8.33;7.00;;;;;16.55;25.17;100941.00;5055806;28;56931;-77
2022/04/02 04:16:41;;;;;;;;;7.00;7.00;;;;;16.62;25.13;100980.28;5058185;28;45491;-76
2022/04/02 04:19:07;;;;;;;;;10.00;10.00;;;;;16.66;25.06;100978.50;5058441;28;45463;-77
2022/04/02 04:21:34;;;;;;;;;7.00;7.00;;;;;16.72;24.99;100983.81;5057830;28;45597;-77
2022/04/02 04:24:00;;;;;;;;;7.67;7.67;;;;;16.50;25.19;100993.69;5057812;28;45530;-76
2022/04/02 04:26:25;;;;;;;;;7.33;6.67;;;;;16.50;25.18;100986.56;5057882;28;45278;-77
2022/04/02 04:28:51;;;;;;;;;8.00;7.33;;;;;16.56;25.42;100999.94;5056590;28;45570;-77
2022/04/02 04:31:18;;;;;;;;;11.33;11.33;;;;;16.57;25.38;100999.03;5057804;28;45369;-76
2022/04/02 04:33:46;;;;;;;;;7.67;7.67;;;;;16.45;25.41;100983.00;5056519;28;48091;-76
2022/04/02 04:36:12;;;;;;;;;7.33;7.00;;;;;16.45;25.21;100975.88;5057673;28;45399;-77
2022/04/02 04:38:37;;;;;;;;;11.00;9.67;;;;;16.62;25.07;101009.75;5057473;28;45312;-77
2022/04/02 04:41:03;;;;;;;;;9.33;9.33;;;;;16.64;25.24;101007.97;5057984;28;45312;-76
2022/04/02 04:43:29;;;;;;;;;8.33;8.33;;;;;16.63;25.27;101011.53;5057039;28;45391;-77
2022/04/02 04:45:55;;;;;;;;;10.00;10.00;;;;;16.37;25.50;100977.66;5057775;28;45476;-76
2022/04/02 04:48:20;;;;;;;;;11.00;9.33;;;;;16.66;25.21;101019.56;5057869;28;45376;-76
2022/04/02 04:50:46;;;;;;;;;7.33;5.00;;;;;16.32;25.26;100971.41;5057753;28;45417;-77
2022/04/02 04:53:12;;;;;;;;;11.00;9.67;;;;;16.39;25.13;100986.56;5057722;28;45503;-76
2022/04/02 04:55:37;;;;;;;;;11.33;9.00;;;;;16.59;25.27;100999.91;5057616;28;45534;-77
2022/04/02 04:58:02;;;;;;;;;12.00;7.33;;;;;16.65;25.28;101031.16;5057240;28;45321;-76
2022/04/02 05:00:28;;;;;;;;;10.00;10.00;;;;;16.72;25.15;101034.72;5057670;28;45491;-76
2022/04/02 05:02:53;;;;;;;;;9.33;9.33;;;;;16.72;24.98;101035.66;5057490;28;46525;-76
2022/04/02 05:05:19;;;;;;;;;10.00;10.00;;;;;16.70;25.17;101026.69;5056971;28;45305;-77
2022/04/02 05:07:45;;;;;;;;;7.67;7.67;;;;;16.62;25.19;101015.09;5057470;28;45286;-76
2022/04/02 05:10:12;;;;;;;;;11.00;9.67;;;;;16.89;25.14;101043.69;5057450;28;45386;-77
2022/04/02 05:12:38;;;;;;;;;11.33;10.00;;;;;16.45;24.96;101002.66;5056759;28;46675;-77
2022/04/02 05:15:09;;;;;;;;;7.00;7.00;;;;;16.24;25.35;100990.19;5057290;28;45392;-76
2022/04/02 05:17:36;;;;;;;;;6.00;6.00;;;;;16.52;25.31;101040.13;5056858;28;45541;-76
2022/04/02 05:20:03;;;;;;;;;10.00;7.00;;;;;16.19;25.34;100965.19;5056725;28;45606;-77
2022/04/02 05:22:28;;;;;;;;;7.33;6.67;;;;;16.65;25.04;101036.53;5056756;28;45529;-76
2022/04/02 05:24:54;;;;;;;;;9.33;9.00;;;;;16.57;25.10;101024.94;5072567;28;45386;-76
2022/04/02 05:27:20;;;;;;;;;11.67;11.67;;;;;16.46;25.28;101007.09;5057021;28;45357;-76
2022/04/02 05:29:46;;;;;;;;;8.67;8.00;;;;;16.70;25.32;101060.66;5072618;28;45494;-77
2022/04/02 05:32:12;;;;;;;;;5.67;5.67;;;;;16.78;25.13;101053.50;5057220;28;46431;-76
2022/04/02 05:34:37;;;;;;;;;9.67;7.00;;;;;16.83;25.01;101061.50;5056647;28;45456;-77
2022/04/02 05:37:03;;;;;;;;;9.00;9.00;;;;;16.23;24.92;100947.31;5057121;28;45424;-77
2022/04/02 05:39:28;;;;;;;;;7.67;7.67;;;;;16.75;25.09;101062.44;5056474;28;45527;-76
2022/04/02 05:41:53;;;;;;;;;13.00;10.00;;;;;16.74;25.00;101055.28;5056797;28;46027;-76
2022/04/02 05:44:19;;;;;;;;;9.00;7.00;;;;;16.45;25.05;101032.09;5056794;28;45293;-77
2022/04/02 05:46:44;;;;;;;;;10.00;8.00;;;;;16.49;25.10;101024.06;5056778;28;45866;-76
2022/04/02 05:49:11;;;;;;;;;11.00;9.33;;;;;16.37;25.79;101004.44;5056893;28;45443;-77
2022/04/02 05:51:37;;;;;;;;;10.67;10.33;;;;;16.19;25.02;100972.34;5056402;28;46024;-76
2022/04/02 05:54:03;;;;;;;;;10.33;9.00;;;;;16.57;24.94;101046.38;5056083;28;45436;-77
2022/04/02 05:56:29;;;;;;;;;12.33;10.00;;;;;16.26;25.12;101004.44;5056602;28;45341;-76
2022/04/02 05:58:55;;;;;;;;;14.00;12.00;;;;;16.79;25.14;101082.97;5056749;28;45426;-77
2022/04/02 06:01:20;;;;;;;;;13.33;10.00;;;;;16.59;25.24;101068.69;5056209;28;45394;-76
2022/04/02 06:03:47;;;;;;;;;10.00;8.67;;;;;16.52;25.31;101091.00;5056576;28;45339;-77
2022/04/02 06:06:13;;;;;;;;;15.00;10.33;;;;;16.39;25.15;101032.09;5056540;28;45389;-77
2022/04/02 06:08:38;;;;;;;;;13.00;8.67;;;;;16.56;24.97;101066.03;5056142;28;45548;-77
2022/04/02 06:11:06;;;;;;;;;11.00;10.00;;;;;16.84;24.83;101096.34;5054665;28;47485;-76
2022/04/02 06:13:31;;;;;;;;;9.33;9.33;;;;;16.65;25.01;101084.75;5055307;28;45351;-77
2022/04/02 06:15:57;;;;;;;;;11.33;10.00;;;;;16.37;25.08;101052.63;5089028;27;45627;-76
2022/04/02 06:18:22;;;;;;;;;11.00;10.00;;;;;16.25;25.40;101052.63;5065097;28;45590;-77
2022/04/02 06:20:50;;;;;;;;;11.67;11.00;;;;;16.47;25.34;101085.66;5073290;28;45329;-77
2022/04/02 06:23:17;;;;;;;;;14.67;12.00;;;;;16.51;25.37;101107.97;5063150;28;45650;-77
2022/04/02 06:25:42;;;;;;;;;11.00;8.67;;;;;16.27;25.12;101070.50;5059332;28;45514;-76
2022/04/02 06:28:08;;;;;;;;;10.67;10.33;;;;;16.58;25.10;101101.72;5076386;27;45368;-76
2022/04/02 06:30:34;;;;;;;;;9.00;9.00;;;;;16.73;25.21;101122.25;5075701;27;47704;-76
2022/04/02 06:33:03;;;;;;;;;8.67;7.00;;;;;16.36;25.11;101072.25;5075714;27;45351;-76
2022/04/02 06:35:29;;;;;;;;;8.67;8.67;;;;;16.34;25.37;101079.38;5038288;27;45574;-76
2022/04/02 06:37:55;;;;;;;;;11.00;8.00;;;;;16.85;25.01;101132.97;5035291;28;45342;-76
2022/04/02 06:40:23;;;;;;;;;5.33;5.33;;;;;16.88;25.01;101126.72;5060885;28;45722;-76
2022/04/02 06:42:48;;;;;;;;;11.00;9.67;;;;;16.90;25.12;101133.88;5075874;27;45512;-76
2022/04/02 06:45:14;;;;;;;;;13.00;9.67;;;;;16.91;25.16;101141.03;5061107;27;45358;-76
2022/04/02 06:47:41;;;;;;;;;11.00;8.67;;;;;16.64;25.09;101107.97;5055829;28;45496;-76
2022/04/02 06:50:09;;;;;;;;;10.67;10.00;;;;;16.58;25.25;101104.38;5055941;28;46316;-77
2022/04/02 06:52:35;;;;;;;;;8.00;8.00;;;;;16.90;25.38;101139.22;5054931;28;45506;-77
2022/04/02 06:55:02;;;;;;;;;6.00;5.33;;;;;17.04;25.04;101141.03;5055243;28;45825;-76
2022/04/02 06:57:28;;;;;;;;;10.00;8.00;;;;;16.75;24.79;101077.59;5055436;28;45441;-76
2022/04/02 06:59:53;;;;;;;;;10.67;8.00;;;;;17.18;24.98;101149.03;5055354;28;46151;-77
2022/04/02 07:02:20;;;;;;;;;10.33;8.67;;;;;16.96;24.93;101155.34;5055705;28;45322;-77
2022/04/02 07:04:46;;;;;;;;;7.00;7.00;;;;;16.98;25.17;101144.59;5051207;28;46415;-76
2022/04/02 07:07:12;;;;;;;;;10.00;10.00;;;;;17.04;25.19;101152.63;5037244;28;45372;-75
2022/04/02 07:09:37;;;;;;;;;8.00;8.00;;;;;16.98;24.79;101115.13;5044624;28;46020;-76
2022/04/02 07:12:03;;;;;;;;;10.00;7.67;;;;;17.20;24.98;101157.97;5053455;27;45400;-76
2022/04/02 07:14:28;;;;;;;;;10.33;8.00;;;;;17.23;24.82;101157.94;5050037;28;45442;-76
2022/04/02 07:16:54;;;;;;;;;10.33;8.00;;;;;17.23;24.96;101152.59;5049944;28;45425;-76
2022/04/02 07:19:22;;;;;;;;;12.00;8.00;;;;;16.98;24.91;101113.31;5041825;28;45689;-75
2022/04/02 07:21:50;;;;;;;;;7.67;7.00;;;;;17.26;25.12;101141.88;5045500;28;45395;-77
2022/04/02 07:24:17;;;;;;;;;11.00;10.00;;;;;17.21;24.75;101136.50;5049465;28;45391;-78
2022/04/02 07:26:45;;;;;;;;;7.00;7.00;;;;;17.05;24.98;101122.25;5059112;28;45420;-79
2022/04/02 07:29:12;;;;;;;;;10.00;7.67;;;;;17.22;24.77;101149.03;5075418;27;45583;-77
2022/04/02 07:31:37;;;;;;;;;8.67;8.00;;;;;17.41;24.70;101174.03;5075566;28;45379;-77
2022/04/02 07:34:03;;;;;;;;;6.67;6.67;;;;;17.43;24.63;101182.94;5066288;27;45620;-78
2022/04/02 07:36:46;;;;;;;;;7.00;7.00;;;;;17.56;24.32;101182.91;5055039;28;45384;-78
2022/04/02 07:39:23;;;;;;;;;11.00;8.33;;;;;17.25;24.76;101140.09;5053449;28;47414;-78
2022/04/02 07:42:11;;;;;;;;;7.00;7.00;;;;;17.47;24.56;101192.78;5054831;28;45537;-78
2022/04/02 07:45:06;;;;;;;;;10.33;7.00;;;;;17.62;24.39;101183.81;5058683;28;45394;-79
2022/04/02 07:47:35;;;;;;;;;8.00;8.00;;;;;17.51;24.17;101149.84;5058638;28;45460;-78
2022/04/02 07:50:07;;;;;;;;;8.33;7.00;;;;;17.64;24.35;101197.22;5056379;28;48016;-81
2022/04/02 07:52:33;;;;;;;;;6.67;6.67;;;;;17.53;24.13;101193.66;5066133;28;45384;-81
2022/04/02 07:55:00;;;;;;;;;6.00;6.00;;;;;17.73;24.10;101199.84;5064527;27;45229;-83
2022/04/02 07:57:52;;;;;;;;;7.67;5.33;;;;;17.71;23.69;101193.59;5065024;28;45522;-81
2022/04/02 08:00:22;;;;;;;;;7.33;6.67;;;;;17.51;23.96;101180.25;5071633;28;45416;-86
2022/04/02 08:02:49;;;;;;;;;5.00;5.00;;;;;17.25;23.34;101197.28;5073842;27;45468;-83
2022/04/02 08:05:16;;;;;;;;;8.00;8.00;;;;;17.24;23.52;101197.28;5044633;27;45604;-83
2022/04/02 08:07:44;;;;;;;;;8.33;8.33;;;;;17.10;23.50;101158.00;5070850;28;45469;-79
2022/04/02 08:10:13;;;;;;;;;5.00;5.00;;;;;17.38;22.94;101206.19;5065440;27;45328;-84
2022/04/02 08:12:40;;;;;;;;;6.33;5.33;;;;;16.97;22.94;101110.66;5063665;27;45642;-81
2022/04/02 08:15:16;;;;;;;;;6.33;6.00;;;;;16.62;22.79;101063.31;5058515;28;45454;-83
2022/04/02 08:17:43;;;;;;;;;8.00;8.00;;;;;17.09;22.96;101124.03;5060469;28;45534;-83
2022/04/02 08:20:10;;;;;;;;;7.00;7.00;;;;;17.30;22.57;101160.63;5077845;27;46379;-81
2022/04/02 08:22:36;;;;;;;;;5.00;5.00;;;;;17.52;22.46;101195.44;5043350;27;45255;-81
2022/04/02 08:25:02;;;;;;;;;5.00;5.00;;;;;17.74;22.51;101182.84;5055180;28;45471;-81
2022/04/02 08:27:38;;;;;;;;;5.00;5.00;;;;;17.09;22.02;101121.34;5078529;27;45522;-81
2022/04/02 08:30:17;;;;;;;;;5.67;5.67;;;;;17.60;22.47;101214.22;5063818;27;45479;-81
2022/04/02 08:33:13;;;;;;;;;5.67;3.00;;;;;17.51;22.03;101203.50;5058134;28;45392;-80
2022/04/02 08:35:43;;;;;;;;;3.00;3.00;;;;;17.62;22.25;101210.63;5056440;28;45528;-81
2022/04/02 08:38:22;;;;;;;;;10.33;5.00;;;;;17.04;22.48;101124.94;5057486;28;45272;-81
2022/04/02 08:41:06;;;;;;;;;6.67;5.00;;;;;17.86;21.92;101207.84;5056280;28;47015;-81
2022/04/02 08:44:09;;;;;;;;;6.33;5.00;;;;;17.79;21.95;101215.94;5057672;28;45369;-80
2022/04/02 08:46:54;;;;;;;;;3.67;2.00;;;;;17.66;21.90;101152.47;5057709;28;45466;-81
2022/04/02 08:49:38;;;;;;;;;7.67;7.33;;;;;18.06;22.36;101218.53;5057095;28;45530;-81
2022/04/02 08:52:15;;;;;;;;;14.33;12.67;;;;;18.11;21.83;101214.03;5057288;28;45929;-81
2022/04/02 08:54:49;;;;;;;;;10.33;5.00;;;;;18.11;22.16;101214.03;5056855;28;45415;-81
2022/04/02 08:57:31;;;;;;;;;6.33;6.00;;;;;18.10;22.36;101233.72;5057552;28;45401;-80
2022/04/02 09:00:07;;;;;;;;;7.00;7.00;;;;;17.89;22.35;101143.41;5057370;28;45369;-81
2022/04/02 09:02:44;;;;;;;;;8.33;7.00;;;;;18.60;21.83;101234.38;5057208;28;45628;-81
2022/04/02 09:05:53;;;;;;;;;7.67;7.67;;;;;18.64;22.29;101236.13;5057191;28;45515;-81
2022/04/02 09:09:01;;;;;;;;;7.67;7.67;;;;;18.89;22.11;101231.50;5057451;28;45432;-81
2022/04/02 09:11:44;;;;;;;;;6.67;6.67;;;;;18.20;22.14;101148.66;5057243;28;45187;-81
2022/04/02 09:14:27;;;;;;;;;13.33;10.00;;;;;18.43;21.40;101239.84;5057151;28;46208;-81
2022/04/02 09:16:58;;;;;;;;;7.67;7.33;;;;;18.48;21.70;101224.56;5057437;28;45312;-81
2022/04/02 09:20:02;;;;;;;;;7.33;7.33;;;;;18.35;22.05;101237.19;5057606;28;45483;-80
2022/04/02 09:22:50;;;;;;;;;7.00;7.00;;;;;18.46;22.13;101226.38;5056961;28;45356;-80
2022/04/02 09:25:24;;;;;;;;;5.33;3.00;;;;;18.82;21.91;101235.13;5055428;28;46219;-81
2022/04/02 09:28:02;;;;;;;;;8.00;8.00;;;;;18.35;20.98;101239.88;5056804;28;45470;-81
2022/04/02 09:30:42;;;;;;;;;7.00;6.00;;;;;18.61;21.40;101236.16;5057047;28;45349;-80
2022/04/02 09:33:23;;;;;;;;;10.00;6.00;;;;;18.58;21.11;101236.16;5056649;28;45366;-81
2022/04/02 09:36:16;;;;;;;;;6.67;6.00;;;;;18.72;20.83;101226.22;5055593;28;47528;-80
2022/04/02 09:39:11;;;;;;;;;6.00;5.00;;;;;18.62;20.53;101224.47;5056376;28;45321;-81
2022/04/02 09:42:18;;;;;;;;;7.67;6.33;;;;;18.05;20.27;101177.38;5055305;28;45389;-80
2022/04/02 09:44:48;;;;;;;;;7.00;5.33;;;;;18.90;20.45;101227.88;5056657;28;45253;-80
2022/04/02 09:47:46;;;;;;;;;1.67;1.00;;;;;19.02;20.42;101232.28;5055818;28;45453;-81
2022/04/02 09:50:14;;;;;;;;;6.00;2.67;;;;;19.03;20.33;101232.28;5055060;28;45522;-81
2022/04/02 09:52:51;;;;;;;;;5.00;5.00;;;;;18.74;20.37;101239.66;5056371;28;45296;-80
2022/04/02 09:55:22;;;;;;;;;6.00;6.00;;;;;18.75;20.27;101201.13;5055124;28;45482;-81
2022/04/02 09:58:02;;;;;;;;;5.00;5.00;;;;;19.02;20.11;101237.69;5056428;28;45459;-81
2022/04/02 10:00:40;;;;;;;;;3.67;3.67;;;;;19.08;20.61;101202.66;5056041;28;46085;-81
2022/04/02 10:03:18;;;;;;;;;6.33;5.00;;;;;19.58;20.07;101247.91;5056342;28;45392;-81
2022/04/02 10:06:02;;;;;;;;;6.67;5.67;;;;;19.41;19.82;101243.59;5056045;28;45456;-81
2022/04/02 10:08:38;;;;;;;;;5.67;5.67;;;;;19.30;19.66;101226.69;5056050;28;46116;-80
2022/04/02 10:11:06;;;;;;;;;5.33;5.33;;;;;19.31;19.35;101250.88;5056110;28;45412;-81
2022/04/02 10:13:34;;;;;;;;;10.00;7.00;;;;;18.80;19.82;101157.19;5056055;28;45444;-81
2022/04/02 10:15:59;;;;;;;;;5.00;2.33;;;;;19.08;19.62;101228.66;5055939;28;45827;-81
2022/04/02 10:18:26;;;;;;;;;5.00;5.00;;;;;19.04;19.13;101243.91;5056092;28;46437;-81
2022/04/02 10:20:53;;;;;;;;;5.00;5.00;;;;;19.10;19.36;101221.47;5055920;28;45437;-81
2022/04/02 10:23:23;;;;;;;;;4.67;3.67;;;;;19.17;18.95;101244.72;5055864;28;45757;-81
2022/04/02 10:26:20;;;;;;;;;6.00;5.00;;;;;19.19;19.81;101216.00;5056108;28;45484;-81
2022/04/02 10:28:54;;;;;;;;;6.33;5.00;;;;;19.00;19.16;101226.03;5054313;28;46509;-81
2022/04/02 10:31:37;;;;;;;;;5.33;3.67;;;;;19.13;18.98;101245.66;5053920;28;45689;-81
2022/04/02 10:34:17;;;;;;;;;1.00;1.00;;;;;18.84;18.86;101246.75;5055583;28;45408;-81
2022/04/02 10:36:51;;;;;;;;;5.00;5.00;;;;;18.73;18.33;101252.19;5055984;28;45433;-81
2022/04/02 10:39:24;;;;;;;;;6.00;5.00;;;;;18.83;18.67;101248.53;5055356;28;45664;-81
2022/04/02 10:41:55;;;;;;;;;5.00;3.00;;;;;19.18;18.95;101243.81;5056061;28;45542;-81
2022/04/02 10:44:50;;;;;;;;;3.00;3.00;;;;;19.42;18.61;101217.56;5054080;28;45440;-81
2022/04/02 10:47:20;;;;;;;;;2.67;2.33;;;;;19.35;18.08;101174.59;5054102;28;45286;-81
2022/04/02 10:49:50;;;;;;;;;3.00;3.00;;;;;20.04;18.18;101237.53;5053815;28;46296;-81
2022/04/02 10:52:16;;;;;;;;;3.00;2.00;;;;;20.20;18.02;101227.44;5053901;28;45279;-81
2022/04/02 10:54:47;;;;;;;;;2.00;2.00;;;;;19.99;17.86;101187.34;5055527;28;45500;-80
2022/04/02 10:57:14;;;;;;;;;3.00;3.00;;;;;20.32;17.92;101222.81;5055622;28;45375;-81
2022/04/02 10:59:43;;;;;;;;;3.00;3.00;;;;;20.28;17.29;101231.84;5054963;28;45400;-81
2022/04/02 11:02:23;;;;;;;;;1.33;1.33;;;;;19.97;17.36;101257.38;5055139;28;45368;-81
2022/04/02 11:05:03;;;;;;;;;2.00;1.00;;;;;19.78;17.78;101193.88;5055382;28;45371;-80
2022/04/02 11:07:35;;;;;;;;;3.00;1.00;;;;;19.95;17.71;101236.78;5055438;28;45642;-81
2022/04/02 11:10:01;;;;;;;;;4.00;2.00;;;;;19.93;17.64;101242.19;5055097;28;45415;-81
2022/04/02 11:12:45;;;;;;;;;6.67;3.00;;;;;20.01;17.39;101244.75;5055208;28;45435;-81
2022/04/02 11:15:10;;;;;;;;;5.00;5.00;;;;;20.29;18.00;101231.81;5055055;28;45490;-80
2022/04/02 11:17:41;;;;;;;;;3.33;3.00;;;;;20.31;17.92;101202.16;5054487;28;45574;-80
2022/04/02 11:20:18;;;;;;;;;6.00;4.33;;;;;20.07;17.75;101177.38;5054835;28;46107;-80
2022/04/02 11:22:46;;;;;;;;;3.00;3.00;;;;;20.08;17.48;101221.34;5054468;28;45394;-80
2022/04/02 11:25:20;;;;;;;;;2.00;2.00;;;;;19.76;17.43;101210.03;5055171;28;45435;-80
2022/04/02 11:27:49;;;;;;;;;1.67;1.67;;;;;19.96;17.39;101243.94;5054843;28;45223;-80
2022/04/02 11:30:16;;;;;;;;;4.33;3.00;;;;;20.27;18.08;101236.34;5054374;28;46097;-79
2022/04/02 11:32:44;;;;;;;;;1.67;1.00;;;;;20.18;17.05;101207.75;5054677;28;45423;-80
2022/04/02 11:35:14;;;;;;;;;4.33;4.33;;;;;20.60;17.37;101220.59;5054705;28;45416;-80